Hauptseite
METAR-TAF:

METAR-TAF

Flughäfen :

Meriden-Markham Municipal Airport

Meriden, Connecticut, Vereinigte Staaten

Breite: 41-30-35N, Länge: 072-49-40W, Höhe: 31 m

Beobachtung

Neuester Wetterbericht von vor 36 Minuten, um 23:53 UTC
Wind 4 kt aus Süd
Temperatur -1°C
Luftfeuchtigkeit 80%
Luftdruck 1026 hPa
Sichtweite: 16.1 km
Himmel klar

METAR: KMMK 112353Z AUTO 19004KT 10SM CLR M01/M04 A3031 RMK AO2 SLP264 T10111039 10006 21033 51019

Zeit: 19:29 (00:29 UTC)


TAF: fehlend

Wetterbeobachtungen und Prognosen von mehr als 4000 Flughäfen (METAR und TAF Bericht).

Die verfügbaren Stationen werden durch gelbe und rote Markierungen auf der Karte dargestellt.

Führen Sie die Maus auf sie, um den Namen der Station zu sehen.

Darauf klicken, um die Beobachtung von Wetterbeobachtungen und Prognosen zu sehen.

Um die Karte zu ändern : klicken Sie auf den grünen Tasten mit einem schwarzen Kreuz Zum Vergrößern, auf den grünen Button mit einem Gedankenstrich zu verkleinern, oder auf die grünen Pfeile für benachbarte Karten.


METAR-TAF: